Time;durP1;ratioP1;P1;durP2;ratioP2;P2;SDS_P1;SDS_P2;PMS_P1;PMS_P2;Temp;Humidity;BMP_temperature;BMP_pressure;BME280_temperature;BME280_humidity;BME280_pressure;Samples;Min_cycle;Max_cycle;Signal;HPM_P1;HPM_P2
2021/04/10 00:00:34;;;;;;;;;;;17.20;54.60;;;;;;4950093;28;20359;-79
2021/04/10 00:03:04;;;;;;;;;;;17.10;54.60;;;;;;4944573;28;19915;-78
2021/04/10 00:05:39;;;;;;;;;;;17.20;54.50;;;;;;4941809;28;19960;-78
2021/04/10 00:08:15;;;;;;;;;;;17.20;54.60;;;;;;4947524;28;19925;-79
2021/04/10 00:10:53;;;;;;;;;;;17.20;54.40;;;;;;4948012;28;19918;-79
2021/04/10 00:13:31;;;;;;;;;;;17.10;54.40;;;;;;5000780;28;20386;-77
2021/04/10 00:16:32;;;;;;;;;;;;;;;;;;;;;
2021/04/10 00:18:53;;;;;;;;;;;17.10;54.40;;;;;;4949466;28;20287;-79
2021/04/10 00:21:26;;;;;;;;;;;17.10;54.40;;;;;;4955738;28;19925;-78
2021/04/10 00:23:55;;;;;;;;;;;17.10;54.40;;;;;;4956772;28;19914;-79
2021/04/10 00:26:26;;;;;;;;;;;17.10;54.40;;;;;;4944770;28;20009;-78
2021/04/10 00:28:54;;;;;;;;;;;17.20;54.40;;;;;;4956704;28;19926;-78
2021/04/10 00:31:21;;;;;;;;;;;17.10;54.40;;;;;;4940287;28;19914;-79
2021/04/10 00:34:12;;;;;;;;;;;17.10;54.40;;;;;;4945577;28;19923;-79
2021/04/10 00:36:46;;;;;;;;;;;17.10;54.30;;;;;;4953883;28;19914;-80
2021/04/10 00:39:21;;;;;;;;;;;17.10;54.40;;;;;;4949217;28;19919;-78
2021/04/10 00:41:54;;;;;;;;;;;17.10;54.30;;;;;;4958822;28;19976;-79
2021/04/10 00:44:42;;;;;;;;;;;17.10;54.30;;;;;;4941456;28;20391;-79
2021/04/10 00:47:12;;;;;;;;;;;17.10;54.20;;;;;;4951347;28;19964;-80
2021/04/10 00:49:42;;;;;;;;;;;17.10;54.30;;;;;;4946461;28;20283;-80
2021/04/10 00:52:16;;;;;;;;;;;17.10;54.30;;;;;;4947152;28;19915;-79
2021/04/10 00:54:56;;;;;;;;;;;17.10;54.30;;;;;;4953108;29;19926;-79
2021/04/10 00:57:35;;;;;;;;;;;17.10;54.20;;;;;;4952409;28;19950;-79
2021/04/10 01:00:06;;;;;;;;;;;17.10;54.20;;;;;;4958232;28;19914;-79
2021/04/10 01:02:47;;;;;;;;;;;17.10;54.30;;;;;;4948086;28;19914;-78
2021/04/10 01:05:26;;;;;;;;;;;17.10;54.20;;;;;;4947133;28;20292;-78
2021/04/10 01:08:06;;;;;;;;;;;17.10;54.20;;;;;;4947318;28;19919;-79
2021/04/10 01:10:36;;;;;;;;;;;17.10;54.20;;;;;;4954431;28;19926;-79
2021/04/10 01:13:25;;;;;;;;;;;17.10;54.20;;;;;;4949441;28;19915;-79
2021/04/10 01:16:07;;;;;;;;;;;17.10;54.30;;;;;;4974033;28;19915;-79
2021/04/10 01:18:54;;;;;;;;;;;17.10;54.20;;;;;;4948591;28;19925;-79
2021/04/10 01:21:36;;;;;;;;;;;17.00;54.20;;;;;;4938219;28;19961;-78
2021/04/10 01:24:20;;;;;;;;;;;17.10;54.20;;;;;;4935240;28;19919;-78
2021/04/10 01:26:55;;;;;;;;;;;17.10;54.20;;;;;;4977953;28;20287;-79
2021/04/10 01:29:26;;;;;;;;;;;17.10;54.20;;;;;;4950209;28;20272;-78
2021/04/10 01:32:11;;;;;;;;;;;17.10;54.20;;;;;;4939196;28;19915;-79
2021/04/10 01:34:44;;;;;;;;;;;17.10;54.20;;;;;;4944082;28;20271;-78
2021/04/10 01:37:24;;;;;;;;;;;17.00;54.20;;;;;;4937662;28;19915;-79
2021/04/10 01:40:05;;;;;;;;;;;17.10;54.20;;;;;;4948499;28;20032;-79
2021/04/10 01:42:32;;;;;;;;;;;17.00;54.20;;;;;;4946556;28;20386;-79
2021/04/10 01:45:10;;;;;;;;;;;17.10;54.20;;;;;;4951457;28;19930;-79
2021/04/10 01:47:43;;;;;;;;;;;17.10;54.10;;;;;;4963088;28;19988;-79
2021/04/10 01:50:12;;;;;;;;;;;17.00;54.20;;;;;;4958069;28;19919;-79
2021/04/10 01:53:06;;;;;;;;;;;17.00;54.10;;;;;;4970496;28;19954;-79
2021/04/10 01:55:47;;;;;;;;;;;17.00;54.20;;;;;;4953185;28;19915;-79
2021/04/10 01:58:27;;;;;;;;;;;17.00;54.10;;;;;;4950419;28;19919;-78
2021/04/10 02:01:07;;;;;;;;;;;17.00;54.10;;;;;;4942275;28;20304;-79
2021/04/10 02:03:50;;;;;;;;;;;17.00;54.10;;;;;;4948041;28;19919;-79
2021/04/10 02:06:19;;;;;;;;;;;17.10;54.10;;;;;;4966666;28;19915;-79
2021/04/10 02:08:53;;;;;;;;;;;17.00;54.10;;;;;;4938555;28;20347;-79
2021/04/10 02:11:24;;;;;;;;;;;17.10;54.10;;;;;;4946699;28;19915;-79
2021/04/10 02:13:54;;;;;;;;;;;17.00;54.10;;;;;;4975265;28;19961;-78
2021/04/10 02:16:24;;;;;;;;;;;17.00;54.10;;;;;;4950568;28;19961;-79
2021/04/10 02:18:55;;;;;;;;;;;17.00;54.00;;;;;;4947249;28;19922;-79
2021/04/10 02:21:26;;;;;;;;;;;17.00;54.10;;;;;;4948195;29;20376;-79
2021/04/10 02:23:57;;;;;;;;;;;17.00;54.10;;;;;;4941036;28;20364;-79
2021/04/10 02:26:23;;;;;;;;;;;17.00;54.00;;;;;;4938508;29;19964;-79
2021/04/10 02:29:03;;;;;;;;;;;17.00;54.00;;;;;;4955856;28;19926;-79
2021/04/10 02:31:47;;;;;;;;;;;17.00;54.10;;;;;;4934243;28;19918;-79
2021/04/10 02:34:21;;;;;;;;;;;17.00;54.00;;;;;;4966637;28;19949;-79
2021/04/10 02:36:52;;;;;;;;;;;17.00;53.90;;;;;;4943553;29;19968;-79
2021/04/10 02:39:29;;;;;;;;;;;17.10;53.90;;;;;;4973996;28;19964;-80
2021/04/10 02:42:01;;;;;;;;;;;17.00;53.90;;;;;;4953628;28;19988;-79
2021/04/10 02:44:37;;;;;;;;;;;17.00;53.90;;;;;;4946874;28;20284;-80
2021/04/10 02:47:10;;;;;;;;;;;17.00;53.90;;;;;;4942576;28;19934;-80
2021/04/10 02:49:52;;;;;;;;;;;17.00;53.90;;;;;;4949013;28;19925;-79
2021/04/10 02:52:26;;;;;;;;;;;17.00;53.90;;;;;;4965405;28;20014;-79
2021/04/10 02:54:56;;;;;;;;;;;17.00;53.90;;;;;;4956975;28;19915;-78
2021/04/10 02:57:28;;;;;;;;;;;17.00;53.90;;;;;;4947045;29;19921;-77
2021/04/10 03:00:00;;;;;;;;;;;17.00;53.90;;;;;;4958795;28;20005;-79
2021/04/10 03:02:41;;;;;;;;;;;17.00;53.80;;;;;;4945638;28;20363;-79
2021/04/10 03:05:11;;;;;;;;;;;17.00;53.90;;;;;;4952303;28;19937;-80
2021/04/10 03:07:53;;;;;;;;;;;17.00;53.80;;;;;;4954462;28;19919;-79
2021/04/10 03:10:33;;;;;;;;;;;17.00;53.80;;;;;;4952182;28;19976;-80
2021/04/10 03:13:11;;;;;;;;;;;17.00;53.80;;;;;;4942570;29;19922;-79
2021/04/10 03:15:46;;;;;;;;;;;17.00;53.80;;;;;;4950149;28;19921;-79
2021/04/10 03:18:22;;;;;;;;;;;17.00;53.80;;;;;;4935564;28;19915;-79
2021/04/10 03:21:04;;;;;;;;;;;;;;;;;;;;;
2021/04/10 03:23:35;;;;;;;;;;;17.00;53.70;;;;;;4940814;29;19937;-78
2021/04/10 03:26:37;;;;;;;;;;;;;;;;;;;;;
2021/04/10 03:28:58;;;;;;;;;;;17.00;53.80;;;;;;4953454;28;19926;-78
2021/04/10 03:31:37;;;;;;;;;;;17.00;53.70;;;;;;4945811;28;19986;-78
2021/04/10 03:34:04;;;;;;;;;;;17.00;53.70;;;;;;4935540;28;19918;-78
2021/04/10 03:36:34;;;;;;;;;;;17.00;53.70;;;;;;4938209;28;19915;-78
2021/04/10 03:39:15;;;;;;;;;;;17.00;53.60;;;;;;4937018;29;20434;-78
2021/04/10 03:41:43;;;;;;;;;;;17.00;53.60;;;;;;4937851;28;20315;-79
2021/04/10 03:44:19;;;;;;;;;;;17.00;53.60;;;;;;4941605;28;19923;-78
2021/04/10 03:46:58;;;;;;;;;;;17.00;53.40;;;;;;4987642;28;19917;-79
2021/04/10 03:49:29;;;;;;;;;;;17.00;53.50;;;;;;4945550;28;19919;-78
2021/04/10 03:52:08;;;;;;;;;;;17.00;53.60;;;;;;4951794;28;20383;-78
2021/04/10 03:54:41;;;;;;;;;;;17.00;53.50;;;;;;4954151;28;19921;-78
2021/04/10 03:57:18;;;;;;;;;;;17.00;53.50;;;;;;4945146;28;19915;-79
2021/04/10 03:59:56;;;;;;;;;;;17.00;53.50;;;;;;4953561;28;19914;-79
2021/04/10 04:02:38;;;;;;;;;;;17.00;53.60;;;;;;4946722;28;19915;-79
2021/04/10 04:05:18;;;;;;;;;;;17.00;53.50;;;;;;4986658;28;19930;-78
2021/04/10 04:07:52;;;;;;;;;;;17.00;53.50;;;;;;4946530;29;20005;-78
2021/04/10 04:10:31;;;;;;;;;;;17.00;53.50;;;;;;4948925;28;19918;-78
2021/04/10 04:13:09;;;;;;;;;;;17.00;53.40;;;;;;4953523;28;20352;-78
2021/04/10 04:15:39;;;;;;;;;;;17.00;53.40;;;;;;4952195;28;19914;-78
2021/04/10 04:18:11;;;;;;;;;;;17.00;53.50;;;;;;4953821;28;19915;-79
2021/04/10 04:20:42;;;;;;;;;;;17.00;53.50;;;;;;4946100;28;19964;-79
2021/04/10 04:23:13;;;;;;;;;;;17.00;54.20;;;;;;4941545;28;19915;-79
2021/04/10 04:26:13;;;;;;;;;;;;;;;;;;;;;
2021/04/10 04:28:43;;;;;;;;;;;17.00;54.50;;;;;;4945584;28;19919;-78
2021/04/10 04:31:22;;;;;;;;;;;17.00;54.40;;;;;;4949945;28;19918;-79
2021/04/10 04:33:59;;;;;;;;;;;17.00;54.40;;;;;;4950456;28;19918;-79
2021/04/10 04:36:39;;;;;;;;;;;17.00;54.30;;;;;;4957347;28;20355;-78
2021/04/10 04:39:26;;;;;;;;;;;17.00;54.20;;;;;;4977675;28;20318;-79
2021/04/10 04:41:58;;;;;;;;;;;17.00;54.30;;;;;;4951101;28;19922;-78
2021/04/10 04:44:29;;;;;;;;;;;17.00;54.20;;;;;;4949356;28;19923;-78
2021/04/10 04:47:30;;;;;;;;;;;;;;;;;;;;;
2021/04/10 04:50:11;;;;;;;;;;;17.00;54.20;;;;;;4936270;28;19918;-78
2021/04/10 04:52:44;;;;;;;;;;;17.10;54.20;;;;;;4942162;28;19918;-79
2021/04/10 04:55:36;;;;;;;;;;;17.10;54.20;;;;;;4950502;28;19961;-78
2021/04/10 04:58:25;;;;;;;;;;;17.10;54.20;;;;;;4936942;28;19942;-78
2021/04/10 05:00:57;;;;;;;;;;;17.00;54.10;;;;;;4970821;28;19914;-78
2021/04/10 05:03:35;;;;;;;;;;;17.00;54.10;;;;;;4983943;28;19919;-78
2021/04/10 05:09:09;;;;;;;;;;;17.10;54.00;;;;;;4946592;28;19923;-78
2021/04/10 05:11:53;;;;;;;;;;;17.10;54.00;;;;;;4949295;28;19914;-78
2021/04/10 05:14:54;;;;;;;;;;;;;;;;;;;;;
2021/04/10 05:17:14;;;;;;;;;;;17.10;53.90;;;;;;4951002;28;19954;-79
2021/04/10 05:19:46;;;;;;;;;;;17.10;53.90;;;;;;4945087;29;19918;-78
2021/04/10 05:22:20;;;;;;;;;;;17.10;53.80;;;;;;4943327;28;19922;-78
2021/04/10 05:24:59;;;;;;;;;;;17.10;53.80;;;;;;4951130;28;20374;-78
2021/04/10 05:27:30;;;;;;;;;;;17.10;53.80;;;;;;4954704;28;19933;-78
2021/04/10 05:30:00;;;;;;;;;;;17.10;53.80;;;;;;4941795;28;19919;-80
2021/04/10 05:32:26;;;;;;;;;;;17.10;53.70;;;;;;4950272;28;19969;-79
2021/04/10 05:35:29;;;;;;;;;;;17.20;53.70;;;;;;4944525;28;19918;-78
2021/04/10 05:37:58;;;;;;;;;;;17.10;53.60;;;;;;4941742;28;19922;-79
2021/04/10 05:40:31;;;;;;;;;;;17.20;53.60;;;;;;4945763;28;19922;-78
2021/04/10 05:43:04;;;;;;;;;;;17.20;53.50;;;;;;4943866;28;20260;-78
2021/04/10 05:45:35;;;;;;;;;;;17.20;54.00;;;;;;4949915;28;20387;-80
2021/04/10 05:48:06;;;;;;;;;;;17.20;54.70;;;;;;4950359;28;19918;-84
2021/04/10 05:50:45;;;;;;;;;;;17.20;54.80;;;;;;4951071;28;20303;-79
2021/04/10 05:53:38;;;;;;;;;;;17.20;54.80;;;;;;5002594;28;20408;-80
2021/04/10 05:56:02;;;;;;;;;;;17.30;54.90;;;;;;4944258;28;19914;-79
2021/04/10 05:58:30;;;;;;;;;;;17.30;54.80;;;;;;4948915;28;20386;-79
2021/04/10 06:01:04;;;;;;;;;;;17.30;54.90;;;;;;4949560;28;19958;-82
2021/04/10 06:03:33;;;;;;;;;;;17.30;55.10;;;;;;4935110;28;20307;-80
2021/04/10 06:06:15;;;;;;;;;;;;;;;;;;;;;
2021/04/10 06:08:56;;;;;;;;;;;17.30;55.00;;;;;;4938819;28;19923;-83
2021/04/10 06:11:30;;;;;;;;;;;17.30;55.20;;;;;;4947086;28;19914;-83
2021/04/10 06:14:22;;;;;;;;;;;17.30;55.10;;;;;;4953724;28;19985;-83
2021/04/10 06:16:54;;;;;;;;;;;17.30;55.10;;;;;;4988525;28;19913;-83
2021/04/10 06:19:31;;;;;;;;;;;17.30;55.00;;;;;;4950491;28;19976;-83
2021/04/10 06:22:02;;;;;;;;;;;17.30;54.90;;;;;;4936421;28;19915;-83
2021/04/10 06:24:28;;;;;;;;;;;17.40;54.80;;;;;;4944806;28;19922;-83
2021/04/10 06:26:55;;;;;;;;;;;17.40;54.70;;;;;;4944435;28;19923;-84
2021/04/10 06:29:33;;;;;;;;;;;17.40;54.70;;;;;;4941805;28;19919;-83
2021/04/10 06:32:06;;;;;;;;;;;17.40;54.70;;;;;;4951477;28;19914;-83
2021/04/10 06:34:35;;;;;;;;;;;17.50;54.60;;;;;;4953176;28;20279;-83
2021/04/10 06:37:32;;;;;;;;;;;17.40;54.50;;;;;;4951870;28;19945;-83
2021/04/10 06:40:02;;;;;;;;;;;17.40;54.40;;;;;;4944265;28;19934;-83
2021/04/10 06:42:34;;;;;;;;;;;17.50;54.20;;;;;;4936249;28;19915;-84
2021/04/10 06:45:17;;;;;;;;;;;17.50;54.20;;;;;;4935856;28;19988;-84
2021/04/10 06:47:50;;;;;;;;;;;17.50;54.10;;;;;;4935676;28;19919;-84
2021/04/10 06:50:25;;;;;;;;;;;17.50;54.00;;;;;;4947075;28;21203;-83
2021/04/10 06:53:14;;;;;;;;;;;17.50;53.90;;;;;;4941782;28;19950;-83
2021/04/10 06:56:12;;;;;;;;;;;17.50;53.90;;;;;;4947095;28;19922;-83
2021/04/10 06:58:57;;;;;;;;;;;17.50;53.90;;;;;;4935847;28;19969;-83
2021/04/10 07:01:37;;;;;;;;;;;17.50;53.80;;;;;;4959985;28;19919;-83
2021/04/10 07:04:10;;;;;;;;;;;17.50;53.80;;;;;;4947394;28;19919;-85
2021/04/10 07:06:45;;;;;;;;;;;17.60;53.70;;;;;;4986273;28;19913;-86
2021/04/10 07:09:18;;;;;;;;;;;17.50;53.60;;;;;;4968542;28;19925;-86
2021/04/10 07:11:44;;;;;;;;;;;17.60;53.50;;;;;;4946024;28;19918;-84
2021/04/10 07:14:12;;;;;;;;;;;17.60;53.40;;;;;;4959370;28;19915;-83
2021/04/10 07:17:20;;;;;;;;;;;;;;;;;;;;;
2021/04/10 07:19:40;;;;;;;;;;;17.60;53.20;;;;;;4947423;28;19950;-83
2021/04/10 07:22:15;;;;;;;;;;;17.70;53.30;;;;;;4947422;28;19915;-84
2021/04/10 07:24:47;;;;;;;;;;;17.60;53.30;;;;;;4957932;28;19914;-83
2021/04/10 07:27:19;;;;;;;;;;;17.60;53.30;;;;;;4956291;28;19969;-84
2021/04/10 07:29:57;;;;;;;;;;;17.60;53.50;;;;;;4952352;28;19918;-86
2021/04/10 07:32:39;;;;;;;;;;;17.60;53.50;;;;;;4939673;28;20001;-84
2021/04/10 07:35:16;;;;;;;;;;;17.60;53.40;;;;;;4940754;28;19922;-84
2021/04/10 07:37:48;;;;;;;;;;;17.70;53.40;;;;;;4960442;28;19915;-85
2021/04/10 07:40:44;;;;;;;;;;;17.70;53.30;;;;;;4956862;28;19977;-86
2021/04/10 07:43:09;;;;;;;;;;;17.70;53.30;;;;;;4955317;28;20279;-85
2021/04/10 07:45:49;;;;;;;;;;;17.70;53.20;;;;;;4958622;28;19946;-85
2021/04/10 07:48:28;;;;;;;;;;;17.70;53.10;;;;;;4941506;28;20009;-85
2021/04/10 07:51:06;;;;;;;;;;;17.80;53.10;;;;;;4950992;28;19927;-85
2021/04/10 07:53:43;;;;;;;;;;;17.80;53.00;;;;;;4947156;28;19915;-86
2021/04/10 07:56:13;;;;;;;;;;;17.80;52.90;;;;;;4949993;28;19914;-85
2021/04/10 07:58:45;;;;;;;;;;;17.80;53.00;;;;;;4948934;28;19921;-85
2021/04/10 08:01:17;;;;;;;;;;;17.80;52.90;;;;;;4951055;28;19911;-85
2021/04/10 08:03:57;;;;;;;;;;;17.80;52.90;;;;;;4941396;28;19961;-85
2021/04/10 08:06:28;;;;;;;;;;;17.80;52.90;;;;;;4948754;28;19977;-85
2021/04/10 08:09:07;;;;;;;;;;;17.80;52.90;;;;;;4943892;28;19930;-85
2021/04/10 08:11:51;;;;;;;;;;;17.80;52.80;;;;;;4951232;28;19919;-85
2021/04/10 08:14:18;;;;;;;;;;;17.80;52.80;;;;;;4948695;28;19922;-78
2021/04/10 08:16:48;;;;;;;;;;;17.80;52.90;;;;;;4947117;28;19925;-78
2021/04/10 08:19:17;;;;;;;;;;;17.80;52.80;;;;;;4952341;28;19964;-77
2021/04/10 08:21:48;;;;;;;;;;;17.80;52.40;;;;;;4942007;28;19914;-77
2021/04/10 08:24:26;;;;;;;;;;;17.80;52.00;;;;;;4956167;28;19919;-78
2021/04/10 08:27:01;;;;;;;;;;;17.80;51.80;;;;;;4971975;28;19973;-78
2021/04/10 08:29:32;;;;;;;;;;;17.80;51.40;;;;;;4937054;28;19918;-78
2021/04/10 08:31:59;;;;;;;;;;;17.80;51.30;;;;;;4945618;28;20006;-78
2021/04/10 08:34:31;;;;;;;;;;;17.90;51.20;;;;;;4938580;28;19914;-78
2021/04/10 08:37:00;;;;;;;;;;;17.80;51.20;;;;;;4946017;28;19915;-77
2021/04/10 08:39:34;;;;;;;;;;;17.90;51.20;;;;;;4946720;28;19950;-79
2021/04/10 08:42:00;;;;;;;;;;;17.90;51.20;;;;;;4989028;28;20300;-79
2021/04/10 08:44:33;;;;;;;;;;;17.80;51.10;;;;;;4978576;28;19915;-79
2021/04/10 08:47:01;;;;;;;;;;;17.90;51.00;;;;;;4983516;28;19922;-79
2021/04/10 08:49:36;;;;;;;;;;;17.90;51.00;;;;;;4953176;28;20017;-79
2021/04/10 08:52:18;;;;;;;;;;;17.90;50.80;;;;;;4955570;28;20398;-79
2021/04/10 08:54:45;;;;;;;;;;;17.90;50.60;;;;;;4950099;28;20360;-79
2021/04/10 08:57:16;;;;;;;;;;;17.90;50.50;;;;;;4970306;28;20342;-79
2021/04/10 08:59:45;;;;;;;;;;;17.90;50.30;;;;;;4953144;28;19940;-79
2021/04/10 09:02:13;;;;;;;;;;;17.90;50.20;;;;;;4940346;28;20009;-79
2021/04/10 09:04:54;;;;;;;;;;;18.00;50.00;;;;;;4948939;28;19926;-80
2021/04/10 09:07:20;;;;;;;;;;;18.00;50.10;;;;;;4984069;28;20009;-79
2021/04/10 09:09:48;;;;;;;;;;;18.00;50.00;;;;;;4939088;28;19957;-78
2021/04/10 09:12:22;;;;;;;;;;;18.00;49.90;;;;;;4942453;28;19925;-78
2021/04/10 09:14:52;;;;;;;;;;;18.10;49.80;;;;;;4949486;28;19921;-79
2021/04/10 09:17:18;;;;;;;;;;;18.00;49.60;;;;;;4957282;28;19921;-78
2021/04/10 09:19:44;;;;;;;;;;;18.00;49.60;;;;;;4946909;28;19915;-79
2021/04/10 09:22:15;;;;;;;;;;;18.00;49.50;;;;;;4968205;28;19922;-78
2021/04/10 09:24:44;;;;;;;;;;;18.00;49.50;;;;;;4953212;28;20362;-78
2021/04/10 09:27:19;;;;;;;;;;;18.10;49.50;;;;;;4946422;28;20351;-79
2021/04/10 09:29:48;;;;;;;;;;;18.10;49.30;;;;;;4968684;28;20006;-79
2021/04/10 09:32:22;;;;;;;;;;;18.10;49.30;;;;;;4936128;28;20009;-78
2021/04/10 09:34:55;;;;;;;;;;;18.20;49.10;;;;;;4935518;28;20327;-79
2021/04/10 09:37:26;;;;;;;;;;;18.20;49.00;;;;;;4953230;28;19933;-78
2021/04/10 09:40:09;;;;;;;;;;;18.20;48.90;;;;;;4986168;28;19963;-78
2021/04/10 09:42:38;;;;;;;;;;;18.20;48.80;;;;;;4981678;28;19921;-78
2021/04/10 09:45:07;;;;;;;;;;;18.20;48.70;;;;;;4971013;28;19922;-79
2021/04/10 09:47:51;;;;;;;;;;;18.20;48.80;;;;;;4952277;28;20045;-78
2021/04/10 09:50:17;;;;;;;;;;;18.20;48.90;;;;;;4978160;28;20677;-79
2021/04/10 09:52:48;;;;;;;;;;;18.20;48.90;;;;;;4945287;28;19976;-79
2021/04/10 09:55:18;;;;;;;;;;;18.20;48.90;;;;;;4947306;28;20053;-79
2021/04/10 09:57:47;;;;;;;;;;;18.20;48.90;;;;;;4969285;28;19918;-78
2021/04/10 10:00:13;;;;;;;;;;;18.20;48.90;;;;;;4970344;28;19976;-79
2021/04/10 10:02:43;;;;;;;;;;;18.20;48.80;;;;;;4962644;28;20012;-78
2021/04/10 10:05:14;;;;;;;;;;;18.20;48.80;;;;;;4935288;28;19922;-79
2021/04/10 10:07:52;;;;;;;;;;;18.20;48.80;;;;;;4954668;28;19923;-79
2021/04/10 10:10:36;;;;;;;;;;;18.20;48.80;;;;;;4977190;28;20288;-78
2021/04/10 10:13:19;;;;;;;;;;;18.20;48.70;;;;;;4967161;28;19957;-80
2021/04/10 10:15:51;;;;;;;;;;;18.20;48.60;;;;;;4951704;28;20403;-78
2021/04/10 10:18:28;;;;;;;;;;;18.30;48.50;;;;;;4954684;28;19910;-79
2021/04/10 10:21:00;;;;;;;;;;;18.30;48.40;;;;;;4949510;28;19914;-78
2021/04/10 10:23:35;;;;;;;;;;;18.30;48.40;;;;;;4951759;28;19915;-79
2021/04/10 10:26:19;;;;;;;;;;;18.30;48.30;;;;;;4965864;28;19915;-79
2021/04/10 10:28:57;;;;;;;;;;;18.30;48.30;;;;;;4941685;28;20016;-78
2021/04/10 10:31:38;;;;;;;;;;;18.30;48.30;;;;;;4948716;28;19911;-78
2021/04/10 10:34:08;;;;;;;;;;;18.30;48.20;;;;;;4939143;28;19919;-79
2021/04/10 10:36:43;;;;;;;;;;;18.30;48.20;;;;;;4945878;28;19919;-79
2021/04/10 10:39:28;;;;;;;;;;;18.30;48.20;;;;;;4938207;29;19915;-80
2021/04/10 10:41:57;;;;;;;;;;;18.30;48.10;;;;;;4948733;28;20041;-80
2021/04/10 10:44:30;;;;;;;;;;;18.30;48.20;;;;;;4949557;28;19914;-78
2021/04/10 10:47:00;;;;;;;;;;;18.30;48.60;;;;;;4965972;28;19936;-79
2021/04/10 10:49:30;;;;;;;;;;;18.30;48.70;;;;;;4946957;28;19914;-79
2021/04/10 10:51:56;;;;;;;;;;;18.30;48.90;;;;;;4933618;28;19926;-80
2021/04/10 10:54:35;;;;;;;;;;;18.30;48.90;;;;;;4948408;28;19911;-79
2021/04/10 10:57:12;;;;;;;;;;;18.30;48.90;;;;;;4953054;28;19988;-79
2021/04/10 10:59:44;;;;;;;;;;;18.30;49.20;;;;;;4948154;28;19915;-79
2021/04/10 11:02:14;;;;;;;;;;;18.30;49.30;;;;;;4933536;29;20009;-79
2021/04/10 11:04:43;;;;;;;;;;;18.30;49.30;;;;;;4951666;28;19915;-79
2021/04/10 11:07:15;;;;;;;;;;;18.30;49.30;;;;;;4948210;28;19923;-78
2021/04/10 11:09:46;;;;;;;;;;;18.30;49.40;;;;;;4948244;28;20005;-79
2021/04/10 11:12:16;;;;;;;;;;;18.40;49.40;;;;;;4948547;28;20283;-80
2021/04/10 11:14:46;;;;;;;;;;;18.40;49.40;;;;;;4972950;28;19919;-80
2021/04/10 11:17:12;;;;;;;;;;;18.40;49.50;;;;;;4945487;28;20295;-79
2021/04/10 11:19:43;;;;;;;;;;;18.40;49.40;;;;;;4937584;28;20364;-78
2021/04/10 11:22:13;;;;;;;;;;;18.40;49.40;;;;;;4978230;28;20001;-78
2021/04/10 11:24:39;;;;;;;;;;;18.50;49.50;;;;;;4959759;28;19918;-80
2021/04/10 11:27:22;;;;;;;;;;;18.40;49.70;;;;;;4947909;28;20000;-79
2021/04/10 11:29:53;;;;;;;;;;;18.50;50.10;;;;;;4950046;28;20328;-79
2021/04/10 11:32:43;;;;;;;;;;;18.50;50.10;;;;;;4945551;28;19919;-79
2021/04/10 11:35:09;;;;;;;;;;;18.50;50.10;;;;;;4971344;28;20471;-79
2021/04/10 11:37:42;;;;;;;;;;;18.50;50.00;;;;;;4950731;28;19933;-79
2021/04/10 11:40:23;;;;;;;;;;;18.50;50.00;;;;;;4941172;28;19915;-80
2021/04/10 11:42:50;;;;;;;;;;;18.60;49.90;;;;;;4942715;28;20344;-79
2021/04/10 11:45:24;;;;;;;;;;;18.60;49.80;;;;;;4945741;28;20008;-79
2021/04/10 11:48:03;;;;;;;;;;;18.60;49.80;;;;;;4945613;28;19944;-79
2021/04/10 11:50:43;;;;;;;;;;;18.70;49.80;;;;;;4940889;28;19914;-79
2021/04/10 11:53:19;;;;;;;;;;;18.70;49.80;;;;;;4970426;28;20279;-79
2021/04/10 11:55:50;;;;;;;;;;;18.70;49.70;;;;;;4947971;28;20314;-79
2021/04/10 11:58:26;;;;;;;;;;;18.70;49.70;;;;;;4939677;28;19950;-79
2021/04/10 12:01:03;;;;;;;;;;;18.70;49.70;;;;;;4974784;28;19928;-80
2021/04/10 12:03:28;;;;;;;;;;;18.70;49.90;;;;;;4940816;28;19960;-80
2021/04/10 12:05:54;;;;;;;;;;;18.70;50.00;;;;;;4944808;28;19918;-79
2021/04/10 12:08:20;;;;;;;;;;;18.70;50.10;;;;;;4972912;28;19929;-79
2021/04/10 12:10:45;;;;;;;;;;;18.70;50.20;;;;;;4943295;28;19918;-79
2021/04/10 12:13:11;;;;;;;;;;;18.70;50.30;;;;;;4979636;28;19958;-80
2021/04/10 12:15:38;;;;;;;;;;;18.70;50.40;;;;;;4941395;28;20282;-80
2021/04/10 12:18:08;;;;;;;;;;;18.70;50.50;;;;;;4944842;28;20355;-80
2021/04/10 12:20:34;;;;;;;;;;;18.70;50.60;;;;;;4978894;28;19918;-80
2021/04/10 12:23:00;;;;;;;;;;;18.60;50.60;;;;;;4954580;28;19960;-80
2021/04/10 12:25:26;;;;;;;;;;;18.70;50.80;;;;;;4996741;28;19958;-80
2021/04/10 12:27:51;;;;;;;;;;;18.70;50.80;;;;;;4980126;28;19945;-80
2021/04/10 12:30:17;;;;;;;;;;;18.60;50.80;;;;;;4942450;28;19921;-78
2021/04/10 12:32:43;;;;;;;;;;;18.60;50.90;;;;;;4945395;28;19915;-79
2021/04/10 12:35:09;;;;;;;;;;;18.60;50.90;;;;;;4946351;28;19973;-80
2021/04/10 12:37:35;;;;;;;;;;;18.60;51.00;;;;;;4946504;28;19922;-79
2021/04/10 12:40:05;;;;;;;;;;;18.60;51.10;;;;;;4940627;28;19941;-79
2021/04/10 12:42:34;;;;;;;;;;;18.60;51.10;;;;;;4949697;28;19914;-79
2021/04/10 12:45:10;;;;;;;;;;;18.60;51.20;;;;;;4948579;28;19915;-79
2021/04/10 12:47:37;;;;;;;;;;;18.60;51.30;;;;;;4959819;28;19969;-80
2021/04/10 12:50:23;;;;;;;;;;;18.60;51.30;;;;;;4973980;28;19969;-81
2021/04/10 12:52:57;;;;;;;;;;;18.60;51.30;;;;;;4941755;28;19989;-80
2021/04/10 12:55:26;;;;;;;;;;;18.60;51.30;;;;;;4965427;28;19915;-79
2021/04/10 12:57:54;;;;;;;;;;;18.60;51.30;;;;;;4938269;28;20563;-80
2021/04/10 13:00:21;;;;;;;;;;;18.60;51.30;;;;;;4960840;28;19919;-79
2021/04/10 13:02:46;;;;;;;;;;;18.60;51.30;;;;;;4969735;28;19915;-79
2021/04/10 13:05:23;;;;;;;;;;;18.50;51.30;;;;;;4942944;28;20371;-79
2021/04/10 13:07:49;;;;;;;;;;;18.60;51.20;;;;;;4978689;28;20372;-79
2021/04/10 13:10:20;;;;;;;;;;;18.60;51.20;;;;;;4978465;28;19965;-78
2021/04/10 13:12:45;;;;;;;;;;;18.60;51.20;;;;;;4962215;28;19922;-79
2021/04/10 13:15:13;;;;;;;;;;;18.60;51.20;;;;;;4953177;28;19910;-79
2021/04/10 13:17:40;;;;;;;;;;;18.60;51.10;;;;;;4946936;28;20040;-79
2021/04/10 13:20:06;;;;;;;;;;;18.60;51.10;;;;;;4951446;28;20378;-79
2021/04/10 13:22:32;;;;;;;;;;;18.60;51.10;;;;;;4971443;28;20006;-80
2021/04/10 13:24:57;;;;;;;;;;;18.60;51.10;;;;;;4946995;28;19972;-79
2021/04/10 13:27:23;;;;;;;;;;;18.60;51.10;;;;;;4945392;28;19985;-79
2021/04/10 13:29:49;;;;;;;;;;;18.60;51.10;;;;;;4946089;28;20044;-80
2021/04/10 13:32:14;;;;;;;;;;;18.60;51.10;;;;;;4945285;28;20379;-80
2021/04/10 13:34:40;;;;;;;;;;;18.70;51.10;;;;;;4924342;28;19973;-79
2021/04/10 13:37:05;;;;;;;;;;;18.60;51.10;;;;;;4922926;28;19934;-79
2021/04/10 13:39:43;;;;;;;;;;;18.60;51.10;;;;;;4937879;28;19915;-80
2021/04/10 13:42:09;;;;;;;;;;;18.60;51.10;;;;;;4926578;29;19914;-79
2021/04/10 13:44:39;;;;;;;;;;;18.60;51.00;;;;;;4945245;28;20060;-79
2021/04/10 13:47:05;;;;;;;;;;;18.70;51.00;;;;;;4956634;28;19927;-79
2021/04/10 13:49:31;;;;;;;;;;;18.60;51.00;;;;;;4929716;28;19937;-79
2021/04/10 13:51:56;;;;;;;;;;;18.70;51.00;;;;;;4928174;28;19915;-79
2021/04/10 13:54:22;;;;;;;;;;;18.60;51.00;;;;;;4924199;28;19922;-79
2021/04/10 13:56:48;;;;;;;;;;;18.60;51.00;;;;;;4955722;28;20010;-79
2021/04/10 13:59:13;;;;;;;;;;;18.60;51.00;;;;;;4924923;28;19925;-79
2021/04/10 14:01:39;;;;;;;;;;;18.60;51.00;;;;;;4924689;28;19915;-79
2021/04/10 14:04:04;;;;;;;;;;;18.60;51.10;;;;;;4953214;28;19915;-78
2021/04/10 14:06:31;;;;;;;;;;;18.70;51.00;;;;;;4924715;28;19922;-79
2021/04/10 14:08:57;;;;;;;;;;;18.60;51.00;;;;;;4924972;28;19931;-79
2021/04/10 14:11:24;;;;;;;;;;;18.60;51.00;;;;;;4946060;28;20417;-80
2021/04/10 14:13:49;;;;;;;;;;;18.70;51.00;;;;;;4925050;29;19915;-79
2021/04/10 14:16:20;;;;;;;;;;;18.70;51.00;;;;;;4920131;28;19921;-80
2021/04/10 14:18:46;;;;;;;;;;;18.60;50.90;;;;;;4922344;28;19930;-79
2021/04/10 14:21:17;;;;;;;;;;;18.70;51.00;;;;;;4920898;29;20410;-79
2021/04/10 14:23:49;;;;;;;;;;;18.70;50.80;;;;;;4922300;29;19923;-80
2021/04/10 14:26:17;;;;;;;;;;;18.60;50.90;;;;;;4922943;29;19922;-79
2021/04/10 14:28:43;;;;;;;;;;;18.70;50.90;;;;;;4925415;28;19923;-80
2021/04/10 14:31:09;;;;;;;;;;;18.70;50.70;;;;;;4926871;28;19915;-79
2021/04/10 14:33:35;;;;;;;;;;;18.60;50.70;;;;;;4921976;28;20397;-79
2021/04/10 14:36:01;;;;;;;;;;;18.70;50.70;;;;;;4922151;28;20022;-79
2021/04/10 14:38:27;;;;;;;;;;;18.70;50.70;;;;;;4924442;28;20367;-79
2021/04/10 14:40:52;;;;;;;;;;;18.70;50.70;;;;;;4923753;29;19931;-79
2021/04/10 14:43:26;;;;;;;;;;;18.70;50.60;;;;;;4926467;28;19922;-79
2021/04/10 14:45:52;;;;;;;;;;;18.70;50.60;;;;;;4931232;28;19927;-80
2021/04/10 14:48:18;;;;;;;;;;;18.70;50.50;;;;;;4922201;28;20361;-80
2021/04/10 14:50:49;;;;;;;;;;;18.70;50.50;;;;;;4926265;28;19919;-79
2021/04/10 14:53:17;;;;;;;;;;;18.70;50.50;;;;;;4937605;28;19942;-80
2021/04/10 14:55:43;;;;;;;;;;;18.70;50.40;;;;;;4955721;28;19938;-80
2021/04/10 14:58:08;;;;;;;;;;;18.70;50.50;;;;;;4933447;28;20416;-79
2021/04/10 15:00:34;;;;;;;;;;;18.70;50.40;;;;;;4923217;28;19925;-79
2021/04/10 15:02:59;;;;;;;;;;;18.70;50.60;;;;;;4925125;28;19996;-79
2021/04/10 15:05:25;;;;;;;;;;;18.70;50.80;;;;;;4923175;28;19961;-79